createdAt,value
2023-03-27T00:01:32.007Z,3.65
2023-03-27T00:06:37.316Z,5.03
2023-03-27T00:11:40.971Z,3.55
2023-03-27T00:16:44.631Z,4.88
2023-03-27T00:21:49.944Z,4.00
2023-03-27T00:26:55.725Z,7.57
2023-03-27T00:31:59.343Z,4.20
2023-03-27T00:37:04.662Z,6.53
2023-03-27T00:42:13.855Z,4.35
2023-03-27T00:47:19.244Z,4.85
2023-03-27T00:52:24.703Z,4.80
2023-03-27T00:57:28.402Z,4.20
2023-03-27T01:02:32.218Z,7.00
2023-03-27T01:07:40.689Z,5.00
2023-03-27T01:13:17.965Z,5.60
2023-03-27T01:18:34.107Z,4.70
2023-03-27T01:29:15.397Z,4.90
2023-03-27T01:35:04.586Z,4.13
2023-03-27T01:40:15.660Z,4.68
2023-03-27T01:45:21.289Z,4.75
2023-03-27T01:50:30.548Z,5.97
2023-03-27T01:55:39.972Z,7.18
2023-03-27T02:00:51.460Z,5.68
2023-03-27T02:06:01.329Z,3.13
2023-03-27T02:11:07.186Z,5.75
2023-03-27T02:16:15.684Z,3.95
2023-03-27T02:21:19.451Z,3.35
2023-03-27T02:26:25.003Z,4.20
2023-03-27T02:31:44.782Z,4.73
2023-03-27T02:36:58.308Z,5.80
2023-03-27T02:42:09.952Z,5.85
2023-03-27T02:47:20.277Z,5.30
2023-03-27T02:52:29.218Z,2.45
2023-03-27T02:57:37.813Z,4.93
2023-03-27T03:02:41.999Z,3.85
2023-03-27T03:07:45.923Z,4.90
2023-03-27T03:12:51.265Z,5.00
2023-03-27T03:17:55.219Z,4.83
2023-03-27T03:22:58.938Z,4.68
2023-03-27T03:28:07.218Z,5.28
2023-03-27T03:33:10.890Z,5.85
2023-03-27T03:38:14.584Z,4.32
2023-03-27T03:43:20.018Z,4.78
2023-03-27T03:48:24.103Z,5.50
2023-03-27T03:53:27.826Z,4.72
2023-03-27T03:58:34.642Z,5.18
2023-03-27T04:03:39.147Z,6.63
2023-03-27T04:08:42.910Z,4.75
2023-03-27T04:13:48.302Z,4.63
2023-03-27T04:18:52.079Z,5.73
2023-03-27T04:23:55.875Z,4.93
2023-03-27T04:29:01.236Z,3.88
2023-03-27T04:34:04.908Z,6.17
2023-03-27T04:39:08.537Z,5.20
2023-03-27T04:44:13.890Z,6.32
2023-03-27T04:49:17.810Z,4.73
2023-03-27T04:54:21.450Z,5.93
2023-03-27T04:59:26.776Z,5.32
2023-03-27T05:04:31.362Z,4.50
2023-03-27T05:09:35.050Z,5.00
2023-03-27T05:14:40.356Z,4.25
2023-03-27T05:19:44.083Z,5.35
2023-03-27T05:24:47.779Z,4.60
2023-03-27T05:29:53.087Z,5.70
2023-03-27T05:34:56.742Z,4.25
2023-03-27T05:40:00.429Z,6.90
2023-03-27T05:45:06.395Z,5.43
2023-03-27T05:50:10.935Z,5.65
2023-03-27T05:55:15.228Z,3.85
2023-03-27T06:00:21.361Z,3.20
2023-03-27T06:05:25.750Z,4.30
2023-03-27T06:10:31.145Z,1.92
2023-03-27T06:15:39.786Z,3.35
2023-03-27T06:20:43.455Z,4.43
2023-03-27T06:25:47.097Z,4.15
2023-03-27T06:30:52.597Z,3.90
2023-03-27T06:35:56.549Z,3.73
2023-03-27T06:41:00.427Z,1.50
2023-03-27T06:46:07.451Z,3.75
2023-03-27T06:51:11.166Z,2.05
2023-03-27T06:56:14.824Z,3.90
2023-03-27T07:01:20.186Z,4.00
2023-03-27T07:06:23.833Z,2.80
2023-03-27T07:11:28.929Z,3.03
2023-03-27T07:16:35.404Z,1.50
2023-03-27T07:21:39.056Z,1.95
2023-03-27T07:26:42.688Z,4.35
2023-03-27T07:31:57.404Z,3.85
2023-03-27T07:37:02.522Z,3.05
2023-03-27T07:42:06.354Z,4.70
2023-03-27T07:47:11.646Z,6.18
2023-03-27T07:52:16.391Z,2.92
2023-03-27T07:57:20.374Z,2.35
2023-03-27T08:02:25.788Z,3.22
2023-03-27T08:07:29.439Z,3.08
2023-03-27T08:12:33.672Z,2.25
2023-03-27T08:17:39.777Z,3.28
2023-03-27T08:22:43.597Z,2.05
2023-03-27T08:27:47.247Z,2.97
2023-03-27T08:32:52.929Z,3.47
2023-03-27T08:37:56.596Z,6.30
2023-03-27T08:43:07.348Z,3.00
2023-03-27T08:48:20.425Z,2.20
2023-03-27T08:53:34.869Z,1.33
2023-03-27T08:58:38.548Z,2.13
2023-03-27T09:03:49.728Z,2.05
2023-03-27T09:09:01.553Z,2.88
2023-03-27T09:14:13.288Z,2.80
2023-03-27T09:19:26.867Z,2.65
2023-03-27T09:24:33.179Z,2.33
2023-03-27T09:29:41.731Z,3.13
2023-03-27T09:34:47.033Z,1.77
2023-03-27T09:39:53.052Z,2.50
2023-03-27T09:45:00.250Z,1.85
2023-03-27T09:50:24.571Z,2.40
2023-03-27T09:55:32.276Z,3.85
2023-03-27T10:00:36.599Z,1.50
2023-03-27T10:05:42.046Z,2.95
2023-03-27T10:10:45.756Z,2.90
2023-03-27T10:15:49.511Z,3.55
2023-03-27T10:20:56.162Z,2.15
2023-03-27T10:26:01.916Z,5.68
2023-03-27T10:31:07.848Z,3.33
2023-03-27T10:36:13.437Z,5.07
2023-03-27T10:41:28.324Z,3.65
2023-03-27T10:46:38.818Z,5.30
2023-03-27T10:51:49.827Z,4.35
2023-03-27T10:57:00.525Z,4.07
2023-03-27T11:02:13.099Z,4.45
2023-03-27T11:07:23.014Z,7.78
2023-03-27T11:12:29.614Z,3.80
2023-03-27T11:27:59.682Z,3.80
2023-03-27T11:33:28.425Z,4.35
2023-03-27T11:38:37.770Z,4.38
2023-03-27T11:43:41.761Z,4.20
2023-03-27T11:48:58.851Z,2.08
2023-03-27T11:54:20.980Z,3.55
2023-03-27T11:59:39.939Z,3.92
2023-03-27T12:04:51.274Z,3.53
2023-03-27T12:10:05.625Z,2.42
2023-03-27T12:15:24.923Z,3.30
2023-03-27T12:21:01.440Z,2.58
2023-03-27T12:26:47.211Z,4.70
2023-03-27T12:32:13.564Z,1.83
2023-03-27T12:37:19.879Z,2.40
2023-03-27T12:42:44.489Z,4.32
2023-03-27T12:48:07.492Z,4.43
2023-03-27T12:53:20.474Z,2.72
2023-03-27T12:58:34.922Z,6.35
2023-03-27T13:04:06.117Z,1.73
2023-03-27T13:09:36.112Z,3.55
2023-03-27T13:15:03.090Z,3.10
2023-03-27T13:20:17.043Z,3.50
2023-03-27T13:25:41.269Z,2.55
2023-03-27T13:30:50.966Z,4.50
2023-03-27T13:36:07.893Z,3.80
2023-03-27T13:41:47.800Z,3.60
2023-03-27T13:46:58.143Z,4.50
2023-03-27T13:52:45.821Z,3.28
2023-03-27T14:03:41.783Z,2.97
2023-03-27T14:08:54.993Z,3.42
2023-03-27T14:14:23.088Z,4.93
2023-03-27T14:20:01.803Z,3.40
2023-03-27T14:25:14.679Z,3.38
2023-03-27T14:30:20.689Z,6.05
2023-03-27T14:35:28.007Z,4.33
2023-03-27T14:40:35.951Z,5.38
2023-03-27T14:45:41.683Z,5.07
2023-03-27T14:50:45.973Z,4.97
2023-03-27T14:55:51.382Z,4.90
2023-03-27T15:00:58.463Z,4.97
2023-03-27T15:06:03.855Z,5.07
2023-03-27T15:11:15.988Z,5.70
2023-03-27T15:16:23.010Z,5.65
2023-03-27T15:21:32.446Z,5.72
2023-03-27T15:26:38.258Z,8.25
2023-03-27T15:31:43.620Z,4.63
2023-03-27T15:36:53.708Z,4.68
2023-03-27T15:42:05.735Z,4.57
2023-03-27T15:47:25.054Z,5.93
2023-03-27T15:52:33.384Z,4.70
2023-03-27T15:57:38.786Z,5.43
2023-03-27T16:02:42.809Z,5.72
2023-03-27T16:07:49.068Z,5.40
2023-03-27T16:12:58.273Z,10.52
2023-03-27T16:18:05.164Z,5.32
2023-03-27T16:23:08.815Z,5.93
2023-03-27T16:28:15.440Z,6.88
2023-03-27T16:33:22.254Z,4.55
2023-03-27T16:38:26.927Z,6.72
2023-03-27T16:43:32.230Z,9.55
2023-03-27T16:48:35.856Z,8.27
2023-03-27T16:53:39.552Z,8.07
2023-03-27T16:58:44.878Z,11.23
2023-03-27T17:03:48.526Z,9.10
2023-03-27T17:08:52.225Z,7.75
2023-03-27T17:13:57.544Z,9.65
2023-03-27T17:19:01.408Z,11.30
2023-03-27T17:24:05.257Z,10.45
2023-03-27T17:29:10.548Z,9.38
2023-03-27T17:34:14.247Z,10.37
2023-03-27T17:39:18.616Z,9.73
2023-03-27T17:44:23.916Z,9.35
2023-03-27T17:49:27.604Z,14.83
2023-03-27T17:54:31.221Z,5.68
2023-03-27T17:59:36.677Z,7.72
2023-03-27T18:04:40.472Z,11.50
2023-03-27T18:09:46.692Z,8.07
2023-03-27T18:14:52.020Z,7.15
2023-03-27T18:19:55.653Z,7.27
2023-03-27T18:24:59.282Z,8.68
2023-03-27T18:30:04.741Z,10.07
2023-03-27T18:35:10.688Z,8.00
2023-03-27T18:45:20.248Z,6.03
2023-03-27T18:50:23.886Z,5.10
2023-03-27T18:55:27.542Z,5.85
2023-03-27T19:00:32.808Z,7.78
2023-03-27T19:05:36.502Z,6.37
2023-03-27T19:10:40.496Z,9.25
2023-03-27T19:15:45.824Z,4.90
2023-03-27T19:20:49.466Z,4.73
2023-03-27T19:25:53.194Z,5.85
2023-03-27T19:31:05.581Z,4.55
2023-03-27T19:36:10.247Z,6.10
2023-03-27T19:41:13.931Z,4.05
2023-03-27T19:46:19.317Z,5.22
2023-03-27T19:51:23.105Z,4.40
2023-03-27T19:56:26.784Z,4.50
2023-03-27T20:01:32.075Z,3.85
2023-03-27T20:06:35.764Z,2.90
2023-03-27T20:11:39.407Z,5.35
2023-03-27T20:16:45.788Z,2.90
2023-03-27T20:21:49.463Z,4.32
2023-03-27T20:26:53.921Z,5.30
2023-03-27T20:31:59.367Z,3.22
2023-03-27T20:37:03.037Z,2.80
2023-03-27T20:42:06.738Z,2.80
2023-03-27T20:47:12.137Z,4.15
2023-03-27T20:52:17.374Z,3.20
2023-03-27T20:57:21.137Z,3.97
2023-03-27T21:02:26.624Z,2.58
2023-03-27T21:07:31.331Z,3.70
2023-03-27T21:12:34.981Z,2.50
2023-03-27T21:17:40.312Z,2.53
2023-03-27T21:22:44.066Z,2.13
2023-03-27T21:27:47.779Z,3.08
2023-03-27T21:32:53.119Z,3.03
2023-03-27T21:37:56.811Z,3.60
2023-03-27T21:43:00.414Z,3.25
2023-03-27T21:48:05.995Z,2.00
2023-03-27T21:53:09.821Z,3.33
2023-03-27T21:58:13.468Z,3.88
2023-03-27T22:03:19.518Z,5.60
2023-03-27T22:08:23.405Z,2.60
2023-03-27T22:13:27.228Z,2.97
2023-03-27T22:18:34.202Z,3.67
2023-03-27T22:23:37.836Z,3.85
2023-03-27T22:28:41.469Z,2.67
2023-03-27T22:33:46.853Z,3.75
2023-03-27T22:38:50.579Z,2.38
2023-03-27T22:43:54.417Z,2.78
2023-03-27T22:48:59.916Z,5.82
2023-03-27T22:54:03.669Z,2.60
2023-03-27T22:59:07.287Z,3.97
2023-03-27T23:04:12.579Z,3.10
2023-03-27T23:09:16.420Z,3.43
2023-03-27T23:14:20.175Z,3.95
2023-03-27T23:19:25.442Z,4.63
2023-03-27T23:24:29.070Z,3.90
2023-03-27T23:29:33.151Z,3.13
2023-03-27T23:34:38.425Z,2.92
2023-03-27T23:39:42.064Z,2.67
2023-03-27T23:44:45.758Z,3.30
2023-03-27T23:49:51.048Z,3.50
2023-03-27T23:54:54.710Z,3.37
2023-03-27T23:59:58.375Z,3.38
